Аэропорт: Белгород . Белгород

ICAO: UUOB

METAR:
2019-07-24 01:00:00
UUOB 240100Z 23002MPS CAVOK 16/14 Q1010 R29/190057 NOSIG
METAR:
Информация по данной станции не доступна